Time;durP1;ratioP1;P1;durP2;ratioP2;P2;SDS_P1;SDS_P2;PMS_P1;PMS_P2;Temp;Humidity;BMP_temperature;BMP_pressure;BME280_temperature;BME280_humidity;BME280_pressure;Samples;Min_cycle;Max_cycle;Signal;HPM_P1;HPM_P2
2023/12/06 00:00:20;;;;;;;;;;;;;;;15.70;46.66;100788.25;4978086;28;1041;-48
2023/12/06 00:02:45;;;;;;;;;;;;;;;16.94;44.12;100784.94;4965137;28;1248;-50
2023/12/06 00:05:11;;;;;;;;;;;;;;;16.57;44.87;100783.16;4965447;28;1101;-48
2023/12/06 00:07:40;;;;;;;;;;;;;;;15.98;46.15;100781.06;4964500;28;1251;-52
2023/12/06 00:10:05;;;;;;;;;;;;;;;15.77;46.70;100776.28;4967837;28;1149;-51
2023/12/06 00:12:31;;;;;;;;;;;;;;;16.32;45.76;100776.97;4962328;28;1105;-51
2023/12/06 00:14:57;;;;;;;;;;;;;;;17.01;43.56;100776.41;4976575;28;1905;-47
2023/12/06 00:17:22;;;;;;;;;;;;;;;16.25;45.57;100782.72;4962433;28;1100;-49
2023/12/06 00:19:48;;;;;;;;;;;;;;;15.85;46.32;100782.84;4958779;28;1105;-48
2023/12/06 00:22:13;;;;;;;;;;;;;;;15.76;46.58;100785.19;4975269;28;1196;-50
2023/12/06 00:24:39;;;;;;;;;;;;;;;17.04;43.90;100782.44;4977258;28;997;-48
2023/12/06 00:27:04;;;;;;;;;;;;;;;16.34;45.35;100786.53;4974079;28;1072;-47
2023/12/06 00:29:30;;;;;;;;;;;;;;;15.88;46.38;100785.28;4960600;28;1081;-51
2023/12/06 00:31:55;;;;;;;;;;;;;;;15.64;46.99;100789.53;4973604;28;1109;-47
2023/12/06 00:34:21;;;;;;;;;;;;;;;16.70;44.88;100786.63;4977199;28;1906;-48
2023/12/06 00:36:48;;;;;;;;;;;;;;;16.72;44.68;100776.75;4976762;28;1108;-48
2023/12/06 00:39:14;;;;;;;;;;;;;;;16.08;46.05;100762.69;4977250;28;1084;-51
2023/12/06 00:41:39;;;;;;;;;;;;;;;16.24;45.75;100770.41;4976934;28;1022;-50
2023/12/06 00:44:05;;;;;;;;;;;;;;;17.29;43.37;100760.22;4967908;28;1176;-48
2023/12/06 00:46:31;;;;;;;;;;;;;;;16.44;44.94;100761.97;4974581;28;1231;-53
2023/12/06 00:48:58;;;;;;;;;;;;;;;16.02;46.05;100766.63;4967660;28;1184;-51
2023/12/06 00:51:24;;;;;;;;;;;;;;;15.72;46.72;100757.16;4958114;28;1101;-50
2023/12/06 00:53:50;;;;;;;;;;;;;;;16.88;44.63;100760.50;4964092;28;1967;-48
2023/12/06 00:56:15;;;;;;;;;;;;;;;16.50;45.05;100766.81;4961673;28;1144;-48
2023/12/06 00:58:42;;;;;;;;;;;;;;;15.98;45.90;100758.97;4977351;28;993;-48
2023/12/06 01:01:07;;;;;;;;;;;;;;;16.13;45.99;100759.72;4964356;28;1140;-49
2023/12/06 01:03:33;;;;;;;;;;;;;;;17.01;43.93;100760.47;4977164;28;1088;-49
2023/12/06 01:05:58;;;;;;;;;;;;;;;16.25;45.55;100764.13;4975993;28;1084;-49
2023/12/06 01:08:25;;;;;;;;;;;;;;;15.85;46.50;100765.13;4976364;28;1065;-48
2023/12/06 01:10:51;;;;;;;;;;;;;;;17.03;44.07;100760.34;4964517;28;1037;-51
2023/12/06 01:13:17;;;;;;;;;;;;;;;16.65;44.56;100770.19;4962818;28;1906;-50
2023/12/06 01:15:43;;;;;;;;;;;;;;;16.06;45.70;100756.66;4974298;28;1256;-51
2023/12/06 01:18:08;;;;;;;;;;;;;;;15.81;46.63;100753.03;4972163;28;1112;-48
2023/12/06 01:20:34;;;;;;;;;;;;;;;17.13;43.89;100745.41;4961573;28;1156;-51
2023/12/06 01:23:00;;;;;;;;;;;;;;;16.59;44.68;100752.03;4977321;28;1080;-52
2023/12/06 01:25:25;;;;;;;;;;;;;;;16.05;45.92;100746.97;4977946;28;1060;-47
2023/12/06 01:27:51;;;;;;;;;;;;;;;15.79;46.71;100739.03;4980802;28;1124;-49
2023/12/06 01:30:16;;;;;;;;;;;;;;;15.97;46.38;100736.88;4975889;28;1100;-48
2023/12/06 01:32:42;;;;;;;;;;;;;;;17.25;43.55;100737.47;4971400;28;1132;-50
2023/12/06 01:35:08;;;;;;;;;;;;;;;16.71;44.52;100731.69;4974540;28;1980;-47
2023/12/06 01:37:33;;;;;;;;;;;;;;;16.13;45.87;100733.19;4970232;28;1117;-49
2023/12/06 01:39:59;;;;;;;;;;;;;;;15.79;46.29;100723.97;4977818;28;1062;-52
2023/12/06 01:42:24;;;;;;;;;;;;;;;16.65;44.63;100722.38;4964928;28;1180;-48
2023/12/06 01:44:51;;;;;;;;;;;;;;;16.66;44.49;100721.41;4959444;28;1164;-45
2023/12/06 01:47:18;;;;;;;;;;;;;;;16.06;45.84;100716.00;4971402;28;1204;-50
2023/12/06 01:49:43;;;;;;;;;;;;;;;15.78;46.34;100714.31;4975648;28;1204;-49
2023/12/06 01:52:09;;;;;;;;;;;;;;;16.58;45.18;100705.22;4979234;28;1101;-49
2023/12/06 01:54:34;;;;;;;;;;;;;;;16.92;43.81;100700.03;4967471;28;1985;-48
2023/12/06 01:57:00;;;;;;;;;;;;;;;16.16;45.53;100696.63;4969802;28;1151;-50
2023/12/06 01:59:25;;;;;;;;;;;;;;;15.83;46.69;100689.28;4980158;28;1132;-49
2023/12/06 02:01:51;;;;;;;;;;;;;;;17.04;43.95;100682.31;4969142;28;1064;-46
2023/12/06 02:04:17;;;;;;;;;;;;;;;16.45;44.89;100695.47;4963914;28;1185;-47
2023/12/06 02:06:42;;;;;;;;;;;;;;;15.95;46.22;100682.25;4972999;28;1021;-48
2023/12/06 02:09:08;;;;;;;;;;;;;;;15.67;46.79;100696.50;4973853;28;1129;-48
2023/12/06 02:11:34;;;;;;;;;;;;;;;16.47;45.39;100693.56;4959480;29;1094;-52
2023/12/06 02:13:59;;;;;;;;;;;;;;;17.05;43.60;100697.28;4969257;28;2000;-49
2023/12/06 02:16:25;;;;;;;;;;;;;;;16.27;45.47;100697.66;4970928;28;1137;-50
2023/12/06 02:18:51;;;;;;;;;;;;;;;15.87;46.28;100693.38;4969312;28;927;-48
2023/12/06 02:21:16;;;;;;;;;;;;;;;16.99;43.97;100697.75;4966608;28;1125;-46
2023/12/06 02:23:42;;;;;;;;;;;;;;;16.62;44.61;100691.59;4978894;28;1127;-49
2023/12/06 02:26:07;;;;;;;;;;;;;;;16.12;45.66;100691.66;4978325;28;1195;-49
2023/12/06 02:28:33;;;;;;;;;;;;;;;15.83;46.31;100692.75;4974949;28;1171;-49
2023/12/06 02:30:59;;;;;;;;;;;;;;;16.26;45.83;100685.38;4962249;28;1028;-46
2023/12/06 02:33:25;;;;;;;;;;;;;;;17.01;43.87;100686.06;4976087;28;1906;-48
2023/12/06 02:35:57;;;;;;;;;;;;;;;16.20;45.57;100684.00;4969027;28;1169;-48
2023/12/06 02:38:22;;;;;;;;;;;;;;;15.82;46.25;100684.91;4962642;28;1118;-49
2023/12/06 02:40:48;;;;;;;;;;;;;;;15.62;47.07;100677.41;4979342;28;1112;-51
2023/12/06 02:43:14;;;;;;;;;;;;;;;16.85;44.18;100675.72;4966465;28;1128;-51
2023/12/06 02:45:40;;;;;;;;;;;;;;;16.50;44.91;100672.09;4960058;28;1435;-49
2023/12/06 02:48:05;;;;;;;;;;;;;;;15.97;46.22;100672.34;4972618;28;1108;-46
2023/12/06 02:50:31;;;;;;;;;;;;;;;15.71;46.94;100672.41;4960243;28;1129;-47
2023/12/06 02:52:56;;;;;;;;;;;;;;;17.00;43.98;100670.19;4959878;28;1077;-47
2023/12/06 02:55:22;;;;;;;;;;;;;;;16.50;44.96;100665.91;4968344;28;1903;-45
2023/12/06 02:57:48;;;;;;;;;;;;;;;16.07;45.93;100670.78;4978963;28;1072;-46
2023/12/06 03:00:13;;;;;;;;;;;;;;;15.71;46.48;100667.97;4970370;28;1116;-48
2023/12/06 03:02:39;;;;;;;;;;;;;;;16.81;44.49;100660.13;4960046;28;1077;-49
2023/12/06 03:05:05;;;;;;;;;;;;;;;16.61;44.63;100665.13;4968703;28;1169;-51
2023/12/06 03:07:30;;;;;;;;;;;;;;;16.13;45.79;100659.69;4972305;28;1081;-51
2023/12/06 03:09:56;;;;;;;;;;;;;;;16.88;44.23;100653.41;4978278;28;1119;-53
2023/12/06 03:12:21;;;;;;;;;;;;;;;16.79;44.01;100643.47;4976336;28;1076;-52
2023/12/06 03:14:47;;;;;;;;;;;;;;;16.17;45.45;100641.75;4959737;28;1981;-49
2023/12/06 03:17:12;;;;;;;;;;;;;;;16.54;45.21;100659.44;4971127;28;1009;-50
2023/12/06 03:19:38;;;;;;;;;;;;;;;16.99;43.71;100642.81;4949171;28;873;-50
2023/12/06 03:22:03;;;;;;;;;;;;;;;16.30;45.33;100643.53;4973836;28;1057;-52
2023/12/06 03:24:29;;;;;;;;;;;;;;;15.95;45.78;100651.25;4978573;28;1104;-51
2023/12/06 03:26:54;;;;;;;;;;;;;;;16.40;45.52;100633.91;4974962;28;1120;-49
2023/12/06 03:29:20;;;;;;;;;;;;;;;16.86;43.98;100636.72;4955948;28;1077;-49
2023/12/06 03:31:46;;;;;;;;;;;;;;;16.16;45.49;100627.63;4965847;28;1069;-49
2023/12/06 03:34:11;;;;;;;;;;;;;;;15.90;46.53;100627.69;4978726;28;1981;-47
2023/12/06 03:36:37;;;;;;;;;;;;;;;17.11;43.74;100629.56;4965674;28;1152;-49
2023/12/06 03:39:02;;;;;;;;;;;;;;;16.49;45.06;100627.06;4970317;28;1166;-48
2023/12/06 03:41:28;;;;;;;;;;;;;;;16.01;45.90;100628.75;4959533;28;1033;-49
2023/12/06 03:43:53;;;;;;;;;;;;;;;15.72;46.89;100634.31;4968359;28;851;-50
2023/12/06 03:46:19;;;;;;;;;;;;;;;16.87;44.38;100627.78;4962375;28;1131;-53
2023/12/06 03:48:45;;;;;;;;;;;;;;;16.44;44.99;100616.78;4975584;28;1133;-49
2023/12/06 03:51:10;;;;;;;;;;;;;;;16.01;46.04;100616.34;4968416;28;1119;-50
2023/12/06 03:53:36;;;;;;;;;;;;;;;15.73;46.66;100618.28;4972091;28;2399;-50
2023/12/06 03:56:01;;;;;;;;;;;;;;;16.77;44.47;100612.56;4966303;28;2026;-49
2023/12/06 03:58:27;;;;;;;;;;;;;;;16.97;43.79;100612.84;4964961;28;2169;-48
2023/12/06 04:00:53;;;;;;;;;;;;;;;16.20;45.45;100615.00;4958312;28;2121;-50
2023/12/06 04:03:19;;;;;;;;;;;;;;;15.91;46.24;100612.63;4963742;28;1868;-50
2023/12/06 04:05:44;;;;;;;;;;;;;;;17.00;44.11;100614.41;4962433;28;2067;-48
2023/12/06 04:08:10;;;;;;;;;;;;;;;16.86;43.98;100610.16;4963006;28;1307;-50
2023/12/06 04:10:36;;;;;;;;;;;;;;;16.25;45.44;100607.53;4958482;28;1279;-50
2023/12/06 04:13:02;;;;;;;;;;;;;;;15.94;46.23;100611.56;4958186;28;1385;-49
2023/12/06 04:15:29;;;;;;;;;;;;;;;15.78;46.64;100610.03;4957964;28;2041;-49
2023/12/06 04:17:55;;;;;;;;;;;;;;;17.07;43.66;100607.66;4958275;29;1256;-50
2023/12/06 04:20:20;;;;;;;;;;;;;;;16.60;44.82;100605.03;4961070;28;1295;-51
2023/12/06 04:22:46;;;;;;;;;;;;;;;16.08;45.83;100594.66;4957939;29;1128;-51
2023/12/06 04:25:13;;;;;;;;;;;;;;;15.79;46.29;100601.09;4957821;28;1283;-52
2023/12/06 04:27:38;;;;;;;;;;;;;;;15.69;46.67;100602.72;4957622;28;1136;-50
2023/12/06 04:30:05;;;;;;;;;;;;;;;16.97;44.08;100604.00;4957908;28;1406;-48
2023/12/06 04:32:30;;;;;;;;;;;;;;;16.65;44.31;100597.53;4969196;28;859;-46
2023/12/06 04:34:56;;;;;;;;;;;;;;;16.06;45.87;100596.59;4976453;28;1910;-50
2023/12/06 04:37:21;;;;;;;;;;;;;;;15.94;46.26;100585.88;4959076;28;2662;-51
2023/12/06 04:39:47;;;;;;;;;;;;;;;17.16;43.64;100591.97;4958358;28;1526;-47
2023/12/06 04:42:13;;;;;;;;;;;;;;;16.47;44.91;100599.78;4976449;28;1127;-51
2023/12/06 04:44:39;;;;;;;;;;;;;;;15.99;45.73;100594.38;4965279;28;1135;-45
2023/12/06 04:47:04;;;;;;;;;;;;;;;16.28;45.41;100591.38;4973494;28;1078;-49
2023/12/06 04:49:30;;;;;;;;;;;;;;;17.02;43.64;100594.72;4957553;28;1144;-50
2023/12/06 04:51:56;;;;;;;;;;;;;;;16.33;45.00;100600.81;4973157;28;1049;-48
2023/12/06 04:54:23;;;;;;;;;;;;;;;15.87;46.07;100597.88;4966982;28;1973;-50
2023/12/06 04:56:49;;;;;;;;;;;;;;;16.63;44.77;100587.03;4959163;28;1006;-50
2023/12/06 04:59:15;;;;;;;;;;;;;;;16.67;44.46;100590.31;4966967;28;1045;-47
2023/12/06 05:01:41;;;;;;;;;;;;;;;16.11;45.46;100592.66;4975819;28;1092;-54
2023/12/06 05:04:06;;;;;;;;;;;;;;;15.81;46.67;100599.19;4967186;28;1060;-50
2023/12/06 05:06:32;;;;;;;;;;;;;;;16.28;45.67;100593.19;4957359;28;1813;-49
2023/12/06 05:08:57;;;;;;;;;;;;;;;17.31;42.96;100590.78;4976441;28;862;-51
2023/12/06 05:11:23;;;;;;;;;;;;;;;16.51;44.83;100595.94;4976339;28;1092;-51
2023/12/06 05:13:48;;;;;;;;;;;;;;;16.06;45.91;100600.09;4969064;28;1906;-53
2023/12/06 05:16:15;;;;;;;;;;;;;;;16.92;44.06;100607.03;4970374;28;1104;-53
2023/12/06 05:18:40;;;;;;;;;;;;;;;16.96;43.93;100603.19;4957105;28;1030;-52
2023/12/06 05:21:06;;;;;;;;;;;;;;;16.31;45.26;100598.28;4969959;28;1140;-51
2023/12/06 05:23:31;;;;;;;;;;;;;;;16.00;45.79;100605.81;4965039;28;1153;-49
2023/12/06 05:25:57;;;;;;;;;;;;;;;16.42;45.20;100597.47;4962529;28;1228;-54
2023/12/06 05:28:23;;;;;;;;;;;;;;;16.66;44.55;100617.84;4957065;28;1017;-53
2023/12/06 05:30:49;;;;;;;;;;;;;;;16.91;44.57;100608.00;4971077;28;1101;-52
2023/12/06 05:33:15;;;;;;;;;;;;;;;15.84;46.79;100620.19;4962121;28;1964;-55
2023/12/06 05:35:41;;;;;;;;;;;;;;;15.26;46.90;100624.22;4966565;28;2531;-54
2023/12/06 05:38:06;;;;;;;;;;;;;;;15.08;46.54;100620.19;4963306;28;1168;-50
2023/12/06 05:40:32;;;;;;;;;;;;;;;14.99;46.23;100608.41;4964308;28;1144;-55
2023/12/06 05:42:58;;;;;;;;;;;;;;;14.85;45.51;100607.53;4975822;28;1131;-53
2023/12/06 05:45:23;;;;;;;;;;;;;;;14.63;45.71;100608.97;4968668;28;838;-55
2023/12/06 05:47:49;;;;;;;;;;;;;;;14.93;46.59;100612.34;4963776;28;1109;-55
2023/12/06 05:50:14;;;;;;;;;;;;;;;15.53;47.01;100609.13;4976074;28;1009;-52
2023/12/06 05:52:40;;;;;;;;;;;;;;;14.85;47.43;100604.91;4975913;28;1108;-52
2023/12/06 05:55:06;;;;;;;;;;;;;;;15.81;47.35;100608.94;4976433;28;1906;-53
2023/12/06 05:57:32;;;;;;;;;;;;;;;15.33;47.56;100608.72;4974244;28;859;-55
2023/12/06 06:00:00;;;;;;;;;;;;;;;14.92;47.04;100614.13;4964267;28;1133;-50
2023/12/06 06:02:26;;;;;;;;;;;;;;;14.68;46.72;100613.97;4963321;28;1120;-53
2023/12/06 06:04:51;;;;;;;;;;;;;;;14.54;46.41;100618.38;4968885;28;1037;-53
2023/12/06 06:07:17;;;;;;;;;;;;;;;15.71;47.00;100616.72;4958241;28;1148;-55
2023/12/06 06:09:42;;;;;;;;;;;;;;;14.74;47.60;100608.25;4961019;28;923;-53
2023/12/06 06:12:08;;;;;;;;;;;;;;;14.68;47.03;100603.38;4971950;28;1108;-56
2023/12/06 06:14:34;;;;;;;;;;;;;;;15.52;47.53;100602.97;4972450;28;1967;-57
2023/12/06 06:16:59;;;;;;;;;;;;;;;15.09;47.33;100606.81;4973826;28;1236;-54
2023/12/06 06:19:25;;;;;;;;;;;;;;;14.72;47.04;100591.63;4979783;28;1435;-53
2023/12/06 06:21:50;;;;;;;;;;;;;;;14.61;46.46;100586.19;4963805;28;919;-52
2023/12/06 06:24:16;;;;;;;;;;;;;;;15.46;47.54;100586.66;4967778;28;1177;-53
2023/12/06 06:26:41;;;;;;;;;;;;;;;15.17;47.37;100582.44;4978640;28;1048;-53
2023/12/06 06:29:10;;;;;;;;;;;;;;;14.68;47.47;100577.72;4968040;28;1224;-55
2023/12/06 06:31:36;;;;;;;;;;;;;;;14.53;46.78;100579.59;4967112;28;1260;-52
2023/12/06 06:34:02;;;;;;;;;;;;;;;15.91;46.64;100572.84;4978868;28;1898;-48
2023/12/06 06:36:28;;;;;;;;;;;;;;;15.00;47.47;100578.31;4978556;28;1036;-50
2023/12/06 06:38:55;;;;;;;;;;;;;;;14.86;47.80;100590.72;4960528;28;1251;-53
2023/12/06 06:41:21;;;;;;;;;;;;;;;15.67;46.60;100581.63;4973260;28;1152;-53
2023/12/06 06:43:46;;;;;;;;;;;;;;;14.90;47.48;100576.28;4960239;28;1052;-53
2023/12/06 06:46:12;;;;;;;;;;;;;;;16.06;47.19;100576.22;4963820;28;903;-53
2023/12/06 06:48:38;;;;;;;;;;;;;;;15.31;47.82;100573.53;4972030;28;1216;-51
2023/12/06 06:51:04;;;;;;;;;;;;;;;15.63;47.69;100572.19;4973315;28;1092;-50
2023/12/06 06:53:29;;;;;;;;;;;;;;;16.64;45.60;100563.97;4979375;28;1902;-54
2023/12/06 06:55:55;;;;;;;;;;;;;;;15.44;47.32;100565.56;4977980;28;1152;-52
2023/12/06 06:58:20;;;;;;;;;;;;;;;14.98;47.42;100559.88;4969861;28;893;-54
2023/12/06 07:00:46;;;;;;;;;;;;;;;15.47;48.15;100552.06;4973577;28;1145;-53
2023/12/06 07:03:11;;;;;;;;;;;;;;;15.54;47.43;100561.28;4978819;28;1061;-55
2023/12/06 07:05:37;;;;;;;;;;;;;;;15.57;48.56;100552.25;4978335;28;1100;-53
2023/12/06 07:08:03;;;;;;;;;;;;;;;17.21;45.20;100550.78;4978564;28;1084;-54
2023/12/06 07:10:28;;;;;;;;;;;;;;;15.68;47.80;100543.53;4973801;28;919;-51
2023/12/06 07:12:54;;;;;;;;;;;;;;;15.25;47.20;100552.75;4978858;28;1144;-55
2023/12/06 07:15:20;;;;;;;;;;;;;;;16.06;47.25;100547.03;4978497;28;1973;-53
2023/12/06 07:17:45;;;;;;;;;;;;;;;15.34;47.55;100557.41;4978707;28;1077;-51
2023/12/06 07:20:11;;;;;;;;;;;;;;;14.99;47.06;100551.00;4965364;28;1056;-51
2023/12/06 07:22:37;;;;;;;;;;;;;;;15.09;47.28;100547.69;4977044;28;895;-54
2023/12/06 07:25:04;;;;;;;;;;;;;;;15.72;47.16;100542.34;4978017;28;1091;-54
2023/12/06 07:27:30;;;;;;;;;;;;;;;15.18;47.08;100553.19;4978728;28;1127;-52
2023/12/06 07:29:55;;;;;;;;;;;;;;;14.93;46.89;100551.41;4965731;28;1208;-51
2023/12/06 07:32:21;;;;;;;;;;;;;;;14.86;45.90;100548.34;4971553;28;1172;-54
2023/12/06 07:34:47;;;;;;;;;;;;;;;15.79;47.12;100540.97;4976033;28;1901;-49
2023/12/06 07:37:12;;;;;;;;;;;;;;;15.32;47.64;100540.75;4977551;28;1219;-50
2023/12/06 07:39:38;;;;;;;;;;;;;;;15.83;47.74;100546.03;4978325;28;1211;-52
2023/12/06 07:42:04;;;;;;;;;;;;;;;16.96;45.55;100533.22;4959012;28;1052;-50
2023/12/06 07:44:29;;;;;;;;;;;;;;;15.57;47.95;100549.63;4971587;28;1033;-49
2023/12/06 07:46:55;;;;;;;;;;;;;;;15.29;47.21;100539.19;4977474;28;958;-51
2023/12/06 07:49:20;;;;;;;;;;;;;;;16.21;47.10;100537.06;4965810;28;1168;-49
2023/12/06 07:51:46;;;;;;;;;;;;;;;15.47;47.38;100535.31;4965440;28;1052;-50
2023/12/06 07:54:11;;;;;;;;;;;;;;;15.09;46.81;100537.94;4965789;28;1898;-52
2023/12/06 07:56:37;;;;;;;;;;;;;;;14.93;46.46;100535.53;4964595;28;1072;-51
2023/12/06 07:59:03;;;;;;;;;;;;;;;14.87;45.70;100538.56;4963849;28;1171;-48
2023/12/06 08:01:31;;;;;;;;;;;;;;;16.45;46.46;100541.47;4964862;28;1033;-50
2023/12/06 08:03:57;;;;;;;;;;;;;;;15.21;47.65;100549.50;4978233;28;1080;-53
2023/12/06 08:06:23;;;;;;;;;;;;;;;14.90;47.57;100546.31;4964644;28;1056;-47
2023/12/06 08:08:53;;;;;;;;;;;;;;;14.86;46.20;100545.69;4975862;28;1119;-52
2023/12/06 08:11:19;;;;;;;;;;;;;;;14.71;46.10;100544.06;4952415;28;1142;-51
2023/12/06 08:13:44;;;;;;;;;;;;;;;16.24;46.90;100555.41;4965435;28;1972;-53
2023/12/06 08:16:10;;;;;;;;;;;;;;;15.31;47.64;100547.03;4978107;28;1139;-56
2023/12/06 08:18:36;;;;;;;;;;;;;;;14.98;47.57;100533.38;4964973;28;1088;-52
2023/12/06 08:21:04;;;;;;;;;;;;;;;14.71;46.56;100528.16;4975669;28;1428;-47
2023/12/06 08:23:29;;;;;;;;;;;;;;;16.27;46.69;100527.78;4958234;28;1077;-54
2023/12/06 08:25:55;;;;;;;;;;;;;;;15.41;47.77;100545.41;4952504;28;1102;-56
2023/12/06 08:28:20;;;;;;;;;;;;;;;16.45;47.09;100540.66;4977733;28;1064;-58
2023/12/06 08:30:46;;;;;;;;;;;;;;;15.89;47.61;100538.47;4964827;28;1085;-61
2023/12/06 08:33:13;;;;;;;;;;;;;;;15.34;47.47;100535.34;4974889;28;1140;-58
2023/12/06 08:35:39;;;;;;;;;;;;;;;15.09;47.06;100535.28;4944756;28;1911;-59
2023/12/06 08:38:05;;;;;;;;;;;;;;;14.99;46.33;100532.44;4958590;28;1177;-59
2023/12/06 08:40:31;;;;;;;;;;;;;;;15.66;47.98;100532.19;4970022;28;1260;-58
2023/12/06 08:42:57;;;;;;;;;;;;;;;15.39;48.14;100515.53;4970699;28;1115;-61
2023/12/06 08:45:22;;;;;;;;;;;;;;;15.04;47.23;100514.44;4962118;28;1294;-60
2023/12/06 08:47:48;;;;;;;;;;;;;;;14.94;47.39;100516.03;4957783;28;1093;-60
2023/12/06 08:50:14;;;;;;;;;;;;;;;15.70;47.66;100508.97;4964590;28;1032;-60
2023/12/06 08:52:41;;;;;;;;;;;;;;;15.05;47.73;100515.25;4976946;28;1032;-59
2023/12/06 08:55:07;;;;;;;;;;;;;;;15.75;47.98;100515.59;4977335;28;1968;-58
2023/12/06 08:57:33;;;;;;;;;;;;;;;15.54;47.73;100516.22;4972055;28;1136;-56
2023/12/06 08:59:58;;;;;;;;;;;;;;;15.10;47.25;100517.59;4965526;28;1128;-59
2023/12/06 09:02:24;;;;;;;;;;;;;;;14.91;46.62;100517.06;4964207;28;1084;-57
2023/12/06 09:04:51;;;;;;;;;;;;;;;16.08;46.99;100513.25;4977026;28;1116;-59
2023/12/06 09:07:17;;;;;;;;;;;;;;;15.26;47.19;100512.06;4964505;28;1215;-62
2023/12/06 09:09:45;;;;;;;;;;;;;;;14.90;46.85;100514.53;4973327;28;1212;-58
2023/12/06 09:12:11;;;;;;;;;;;;;;;14.76;46.34;100516.31;4976007;28;1065;-54
2023/12/06 09:14:36;;;;;;;;;;;;;;;14.81;46.67;100508.91;4969146;28;1972;-58
2023/12/06 09:17:02;;;;;;;;;;;;;;;15.52;47.33;100496.06;4971547;28;1018;-55
2023/12/06 09:19:28;;;;;;;;;;;;;;;15.29;48.18;100502.09;4977166;28;1100;-60
2023/12/06 09:21:54;;;;;;;;;;;;;;;16.96;46.02;100491.56;4971567;28;1029;-59
2023/12/06 09:24:20;;;;;;;;;;;;;;;15.82;47.57;100492.13;4957496;28;1053;-58
2023/12/06 09:26:45;;;;;;;;;;;;;;;15.26;47.46;100481.13;4970976;28;1053;-58
2023/12/06 09:29:11;;;;;;;;;;;;;;;14.98;47.40;100488.34;4976981;28;1162;-58
2023/12/06 09:31:37;;;;;;;;;;;;;;;14.89;46.37;100478.41;4976212;28;1087;-57
2023/12/06 09:34:02;;;;;;;;;;;;;;;15.11;47.19;100479.53;4975177;28;1910;-57
2023/12/06 09:36:28;;;;;;;;;;;;;;;15.35;47.75;100474.28;4963652;28;1033;-59
2023/12/06 09:38:57;;;;;;;;;;;;;;;14.95;47.02;100464.72;4964384;28;1193;-58
2023/12/06 09:41:29;;;;;;;;;;;;;;;16.43;46.97;100471.75;4963774;28;967;-58
2023/12/06 09:43:55;;;;;;;;;;;;;;;15.26;47.90;100467.84;4968694;28;1072;-57
2023/12/06 09:46:21;;;;;;;;;;;;;;;14.98;46.94;100467.16;4968265;28;1239;-57
2023/12/06 09:48:47;;;;;;;;;;;;;;;15.14;47.93;100472.22;4972417;28;1212;-60
2023/12/06 09:51:13;;;;;;;;;;;;;;;15.41;48.08;100465.88;4973598;28;1157;-60
2023/12/06 09:53:38;;;;;;;;;;;;;;;14.98;47.35;100464.50;4969856;28;1902;-57
2023/12/06 09:56:04;;;;;;;;;;;;;;;14.75;47.24;100466.94;4980279;28;1001;-60
2023/12/06 09:58:30;;;;;;;;;;;;;;;16.31;46.39;100462.91;4972859;28;1077;-59
2023/12/06 10:00:57;;;;;;;;;;;;;;;15.24;47.87;100453.88;4975712;28;1132;-57
2023/12/06 10:03:23;;;;;;;;;;;;;;;15.00;47.13;100453.78;4980270;28;1124;-60
2023/12/06 10:05:56;;;;;;;;;;;;;;;14.86;46.22;100444.19;4967451;28;1264;-60
2023/12/06 10:08:22;;;;;;;;;;;;;;;15.54;47.50;100443.78;4970717;28;1227;-60
2023/12/06 10:10:48;;;;;;;;;;;;;;;14.90;47.50;100443.88;4967214;28;1076;-61
2023/12/06 10:13:13;;;;;;;;;;;;;;;14.72;46.98;100434.53;4970689;28;1149;-59
2023/12/06 10:15:39;;;;;;;;;;;;;;;15.26;47.88;100436.06;4976629;28;1986;-59
2023/12/06 10:18:04;;;;;;;;;;;;;;;15.27;47.93;100427.13;4960753;28;1053;-62
2023/12/06 10:20:30;;;;;;;;;;;;;;;14.86;47.27;100429.16;4975945;28;1197;-58
2023/12/06 10:22:56;;;;;;;;;;;;;;;14.74;46.63;100422.91;4970113;28;1302;-58
2023/12/06 10:25:21;;;;;;;;;;;;;;;14.63;45.83;100425.47;4963853;28;1029;-56
2023/12/06 10:27:47;;;;;;;;;;;;;;;15.89;46.89;100415.59;4979205;28;1068;-57
2023/12/06 10:30:14;;;;;;;;;;;;;;;15.08;47.31;100422.31;4964160;28;1203;-57
2023/12/06 10:32:39;;;;;;;;;;;;;;;14.77;47.28;100416.53;4958985;28;1279;-63
2023/12/06 10:35:05;;;;;;;;;;;;;;;15.96;46.82;100405.38;4964587;28;1990;-60
2023/12/06 10:37:31;;;;;;;;;;;;;;;14.97;47.70;100409.00;4967676;28;1136;-59
2023/12/06 10:40:09;;;;;;;;;;;;;;;15.07;47.75;100410.03;4977935;28;1183;-59
2023/12/06 10:42:35;;;;;;;;;;;;;;;15.50;47.72;100402.53;4979770;28;1132;-56
2023/12/06 10:45:01;;;;;;;;;;;;;;;15.01;47.58;100397.22;4979167;28;1148;-58
2023/12/06 10:47:26;;;;;;;;;;;;;;;16.70;46.18;100400.66;4967408;28;842;-60
2023/12/06 10:49:52;;;;;;;;;;;;;;;15.50;47.59;100389.28;4975728;28;1174;-58
2023/12/06 10:52:17;;;;;;;;;;;;;;;15.14;47.44;100387.44;4978948;28;1147;-60
2023/12/06 10:54:43;;;;;;;;;;;;;;;14.91;46.48;100379.34;4961213;28;1902;-59
2023/12/06 10:57:08;;;;;;;;;;;;;;;15.91;47.11;100387.16;4969110;28;1157;-57
2023/12/06 10:59:34;;;;;;;;;;;;;;;15.15;47.94;100380.31;4973651;28;1208;-59
2023/12/06 11:02:00;;;;;;;;;;;;;;;15.92;47.88;100375.56;4967952;28;1251;-60
2023/12/06 11:04:29;;;;;;;;;;;;;;;15.68;47.44;100373.84;4976103;28;1224;-62
2023/12/06 11:06:58;;;;;;;;;;;;;;;15.12;47.53;100376.09;4978139;28;1141;-58
2023/12/06 11:09:42;;;;;;;;;;;;;;;14.92;46.92;100372.25;4974170;28;1081;-57
2023/12/06 11:12:23;;;;;;;;;;;;;;;14.77;46.48;100372.38;4975245;28;959;-60
2023/12/06 11:14:49;;;;;;;;;;;;;;;16.18;46.82;100366.59;4968381;28;1889;-56
2023/12/06 11:17:20;;;;;;;;;;;;;;;15.17;47.36;100363.38;4962008;28;1037;-58
2023/12/06 11:19:46;;;;;;;;;;;;;;;14.88;47.44;100360.19;4968904;28;1200;-57
2023/12/06 11:22:12;;;;;;;;;;;;;;;16.46;46.27;100367.09;4974582;28;1157;-56
2023/12/06 11:24:38;;;;;;;;;;;;;;;15.35;47.83;100368.25;4968833;28;974;-54
2023/12/06 11:27:04;;;;;;;;;;;;;;;15.10;46.66;100367.41;4974262;28;1061;-58
2023/12/06 11:29:30;;;;;;;;;;;;;;;14.99;46.09;100357.63;4959539;28;1152;-58
2023/12/06 11:31:58;;;;;;;;;;;;;;;14.80;46.67;100361.59;4972149;28;1144;-56
2023/12/06 11:34:32;;;;;;;;;;;;;;;16.28;46.49;100363.09;4960021;28;1902;-54
2023/12/06 11:36:58;;;;;;;;;;;;;;;15.14;47.78;100358.31;4977234;28;1030;-59
2023/12/06 11:39:23;;;;;;;;;;;;;;;14.91;46.69;100352.84;4966678;28;1141;-59
2023/12/06 11:41:49;;;;;;;;;;;;;;;14.69;46.35;100353.53;4976197;28;1172;-53
2023/12/06 11:44:15;;;;;;;;;;;;;;;16.37;46.46;100355.38;4978692;28;1131;-54
2023/12/06 11:46:47;;;;;;;;;;;;;;;15.16;48.01;100350.25;4962251;28;1168;-55
2023/12/06 11:49:12;;;;;;;;;;;;;;;14.96;46.98;100346.38;4970925;28;1223;-55
2023/12/06 11:51:38;;;;;;;;;;;;;;;16.03;47.50;100349.09;4958850;28;1132;-62
2023/12/06 11:54:04;;;;;;;;;;;;;;;15.48;47.39;100348.81;4970930;28;1910;-60
2023/12/06 11:56:30;;;;;;;;;;;;;;;15.03;47.38;100345.81;4976378;28;1105;-59
2023/12/06 11:58:57;;;;;;;;;;;;;;;15.36;48.07;100347.91;4974245;28;1072;-54
2023/12/06 12:01:23;;;;;;;;;;;;;;;15.37;48.01;100352.25;4964195;28;1065;-56
2023/12/06 12:03:49;;;;;;;;;;;;;;;15.03;47.33;100355.59;4978177;28;1080;-58
2023/12/06 12:06:17;;;;;;;;;;;;;;;14.83;46.42;100357.03;4976719;28;1127;-56
2023/12/06 12:08:43;;;;;;;;;;;;;;;14.95;46.98;100352.66;4978047;28;1163;-52
2023/12/06 12:11:09;;;;;;;;;;;;;;;15.93;46.81;100357.84;4963594;28;1121;-51
2023/12/06 12:13:37;;;;;;;;;;;;;;;15.21;47.30;100349.91;4977581;28;1985;-56
2023/12/06 12:16:03;;;;;;;;;;;;;;;15.52;48.11;100358.22;4977025;28;1142;-58
2023/12/06 12:18:29;;;;;;;;;;;;;;;15.54;47.77;100349.19;4977672;28;1064;-57
2023/12/06 12:20:55;;;;;;;;;;;;;;;15.16;47.17;100345.75;4976609;28;1123;-56
2023/12/06 12:23:23;;;;;;;;;;;;;;;14.88;46.77;100339.84;4971915;28;1518;-54
2023/12/06 12:25:49;;;;;;;;;;;;;;;14.83;45.71;100330.56;4963767;28;1085;-58
2023/12/06 12:28:17;;;;;;;;;;;;;;;15.05;46.79;100333.31;4977552;28;1085;-57
2023/12/06 12:30:44;;;;;;;;;;;;;;;15.28;47.35;100338.72;4964888;28;1052;-57
2023/12/06 12:33:09;;;;;;;;;;;;;;;14.92;46.68;100346.63;4964951;28;1168;-58
2023/12/06 12:35:35;;;;;;;;;;;;;;;16.49;46.43;100349.13;4976106;28;1906;-57
2023/12/06 12:38:01;;;;;;;;;;;;;;;15.21;47.46;100339.28;4977230;28;1145;-53
2023/12/06 12:40:26;;;;;;;;;;;;;;;15.01;46.72;100347.75;4950728;28;1066;-59